Terminal Aerodrome Forecast
Issued by NWS

Home | Current Version | Previous Version | Text Only | Print | Product List | Glossary On
Versions: 1 2 3 4 5 6 7 8 9 10 11 12 13
107
FTUS42 KMLB 181424 AAA
TAFFPR
TAF AMD
KFPR 181424Z 1814/1912 30007KT P6SM SCT015
      TEMPO 1814/1816 BKN015
     FM181700 35009KT P6SM SCT025
     FM190000 34003KT P6SM BKN030 BKN250=

USA.gov is the U.S. government's official web portal to all federal, state and local government web resources and services.